sensor_id;sensor_type;location;lat;lon;timestamp;temperature;humidity
42905;DHT22;28550;51.228;4.528;2023-02-28T08:30:58;5.10;1.00
42905;DHT22;28550;51.228;4.528;2023-02-28T08:33:24;5.00;37.80
42905;DHT22;28550;51.228;4.528;2023-02-28T08:41:20;5.00;99.90
42905;DHT22;28550;51.228;4.528;2023-02-28T09:11:08;6.40;99.90
42905;DHT22;28550;51.228;4.528;2023-02-28T09:13:35;6.40;1.00
42905;DHT22;28550;51.228;4.528;2023-02-28T09:16:01;6.50;99.90
42905;DHT22;28550;51.228;4.528;2023-02-28T09:18:27;6.40;14.30
42905;DHT22;28550;51.228;4.528;2023-02-28T09:20:53;6.70;1.00
42905;DHT22;28550;51.228;4.528;2023-02-28T09:23:19;7.00;1.00
42905;DHT22;28550;51.228;4.528;2023-02-28T09:25:48;7.20;99.90
42905;DHT22;28550;51.228;4.528;2023-02-28T09:28:14;7.30;99.90
42905;DHT22;28550;51.228;4.528;2023-02-28T09:30:41;8.30;99.90
42905;DHT22;28550;51.228;4.528;2023-02-28T09:33:07;9.50;99.90
42905;DHT22;28550;51.228;4.528;2023-02-28T09:35:32;9.20;99.90
42905;DHT22;28550;51.228;4.528;2023-02-28T09:37:58;9.50;99.90
42905;DHT22;28550;51.228;4.528;2023-02-28T09:40:24;10.00;90.30
42905;DHT22;28550;51.228;4.528;2023-02-28T09:42:52;9.30;99.90
42905;DHT22;28550;51.228;4.528;2023-02-28T09:45:35;9.20;99.90
42905;DHT22;28550;51.228;4.528;2023-02-28T09:48:23;8.80;1.00
42905;DHT22;28550;51.228;4.528;2023-02-28T09:50:48;7.90;1.00
42905;DHT22;28550;51.228;4.528;2023-02-28T09:53:29;7.70;1.00
42905;DHT22;28550;51.228;4.528;2023-02-28T09:58:51;7.70;1.00
42905;DHT22;28550;51.228;4.528;2023-02-28T10:01:23;7.60;1.00
42905;DHT22;28550;51.228;4.528;2023-02-28T10:03:57;7.70;1.00
42905;DHT22;28550;51.228;4.528;2023-02-28T10:06:28;7.70;1.00
42905;DHT22;28550;51.228;4.528;2023-02-28T10:09:10;7.60;1.00
42905;DHT22;28550;51.228;4.528;2023-02-28T10:11:38;7.40;1.00
42905;DHT22;28550;51.228;4.528;2023-02-28T10:14:13;7.10;1.00
42905;DHT22;28550;51.228;4.528;2023-02-28T10:29:42;8.00;1.00
42905;DHT22;28550;51.228;4.528;2023-02-28T10:32:11;8.90;1.00
42905;DHT22;28550;51.228;4.528;2023-02-28T10:34:38;9.70;1.00
42905;DHT22;28550;51.228;4.528;2023-02-28T10:37:05;10.10;1.00
42905;DHT22;28550;51.228;4.528;2023-02-28T10:39:43;10.60;1.00
42905;DHT22;28550;51.228;4.528;2023-02-28T10:42:24;11.30;1.00
42905;DHT22;28550;51.228;4.528;2023-02-28T10:45:11;11.30;1.00
42905;DHT22;28550;51.228;4.528;2023-02-28T10:47:40;11.10;1.00
42905;DHT22;28550;51.228;4.528;2023-02-28T10:50:25;11.10;1.00
42905;DHT22;28550;51.228;4.528;2023-02-28T10:52:52;10.80;1.00
42905;DHT22;28550;51.228;4.528;2023-02-28T10:55:22;11.10;1.00
42905;DHT22;28550;51.228;4.528;2023-02-28T10:57:51;11.80;1.00
42905;DHT22;28550;51.228;4.528;2023-02-28T11:00:24;11.00;1.00
42905;DHT22;28550;51.228;4.528;2023-02-28T11:02:50;10.70;1.00
42905;DHT22;28550;51.228;4.528;2023-02-28T11:05:30;10.10;1.00
42905;DHT22;28550;51.228;4.528;2023-02-28T11:08:05;9.80;1.00
42905;DHT22;28550;51.228;4.528;2023-02-28T11:10:36;10.00;1.00
42905;DHT22;28550;51.228;4.528;2023-02-28T11:13:02;10.40;1.00
42905;DHT22;28550;51.228;4.528;2023-02-28T11:15:30;10.40;1.00
42905;DHT22;28550;51.228;4.528;2023-02-28T11:18:22;10.30;1.00
42905;DHT22;28550;51.228;4.528;2023-02-28T11:20:59;10.00;99.90
42905;DHT22;28550;51.228;4.528;2023-02-28T11:23:25;9.60;99.90
42905;DHT22;28550;51.228;4.528;2023-02-28T11:25:54;9.40;99.90
42905;DHT22;28550;51.228;4.528;2023-02-28T11:30:59;8.70;99.90
42905;DHT22;28550;51.228;4.528;2023-02-28T11:33:28;8.60;1.00
42905;DHT22;28550;51.228;4.528;2023-02-28T11:36:08;8.70;1.00
42905;DHT22;28550;51.228;4.528;2023-02-28T11:38:36;9.10;99.90
42905;DHT22;28550;51.228;4.528;2023-02-28T11:43:53;9.10;99.90
42905;DHT22;28550;51.228;4.528;2023-02-28T11:46:31;9.30;99.90
42905;DHT22;28550;51.228;4.528;2023-02-28T11:51:28;10.00;99.90
42905;DHT22;28550;51.228;4.528;2023-02-28T11:56:39;10.30;99.90
42905;DHT22;28550;51.228;4.528;2023-02-28T12:07:23;11.20;99.90
42905;DHT22;28550;51.228;4.528;2023-02-28T12:09:56;12.00;99.90
42905;DHT22;28550;51.228;4.528;2023-02-28T12:15:17;12.20;99.90
42905;DHT22;28550;51.228;4.528;2023-02-28T12:20:34;13.10;1.00
42905;DHT22;28550;51.228;4.528;2023-02-28T12:28:38;13.80;1.00
42905;DHT22;28550;51.228;4.528;2023-02-28T12:31:09;14.00;1.00
42905;DHT22;28550;51.228;4.528;2023-02-28T12:33:37;14.30;1.00
42905;DHT22;28550;51.228;4.528;2023-02-28T12:36:10;14.60;1.00
42905;DHT22;28550;51.228;4.528;2023-02-28T12:38:41;14.80;1.00
42905;DHT22;28550;51.228;4.528;2023-02-28T12:41:13;14.80;1.00
42905;DHT22;28550;51.228;4.528;2023-02-28T12:43:46;14.80;1.00
42905;DHT22;28550;51.228;4.528;2023-02-28T12:46:21;14.90;1.00
42905;DHT22;28550;51.228;4.528;2023-02-28T12:49:10;14.80;99.90
42905;DHT22;28550;51.228;4.528;2023-02-28T12:51:37;14.00;99.90
42905;DHT22;28550;51.228;4.528;2023-02-28T12:54:16;14.20;99.90
42905;DHT22;28550;51.228;4.528;2023-02-28T12:56:47;13.80;99.90
42905;DHT22;28550;51.228;4.528;2023-02-28T12:59:27;14.20;99.90
42905;DHT22;28550;51.228;4.528;2023-02-28T13:02:17;14.20;99.90
42905;DHT22;28550;51.228;4.528;2023-02-28T13:10:10;14.80;99.90
42905;DHT22;28550;51.228;4.528;2023-02-28T13:12:37;14.80;99.90
42905;DHT22;28550;51.228;4.528;2023-02-28T13:17:40;14.20;99.90
42905;DHT22;28550;51.228;4.528;2023-02-28T13:20:18;14.00;99.90
42905;DHT22;28550;51.228;4.528;2023-02-28T13:22:45;14.60;99.90
42905;DHT22;28550;51.228;4.528;2023-02-28T13:27:47;15.70;99.90
42905;DHT22;28550;51.228;4.528;2023-02-28T13:35:44;15.60;99.90
42905;DHT22;28550;51.228;4.528;2023-02-28T13:38:22;16.30;99.90
42905;DHT22;28550;51.228;4.528;2023-02-28T13:40:48;16.20;99.90
42905;DHT22;28550;51.228;4.528;2023-02-28T13:43:16;16.00;99.90
42905;DHT22;28550;51.228;4.528;2023-02-28T13:45:44;15.40;99.90
42905;DHT22;28550;51.228;4.528;2023-02-28T13:48:27;14.70;99.90
42905;DHT22;28550;51.228;4.528;2023-02-28T13:50:54;15.00;97.30
42905;DHT22;28550;51.228;4.528;2023-02-28T14:06:14;14.90;80.70
42905;DHT22;28550;51.228;4.528;2023-02-28T14:11:37;14.10;61.80
42905;DHT22;28550;51.228;4.528;2023-02-28T14:14:02;14.40;70.90
42905;DHT22;28550;51.228;4.528;2023-02-28T14:16:43;15.10;60.60
42905;DHT22;28550;51.228;4.528;2023-02-28T14:19:11;14.80;38.10
42905;DHT22;28550;51.228;4.528;2023-02-28T14:21:39;14.60;14.60
42905;DHT22;28550;51.228;4.528;2023-02-28T14:34:58;15.00;21.10
42905;DHT22;28550;51.228;4.528;2023-02-28T14:37:32;15.10;11.30
42905;DHT22;28550;51.228;4.528;2023-02-28T14:39:58;15.70;3.70
42905;DHT22;28550;51.228;4.528;2023-02-28T14:42:30;15.70;10.20
42905;DHT22;28550;51.228;4.528;2023-02-28T14:44:57;15.60;1.00
42905;DHT22;28550;51.228;4.528;2023-02-28T14:47:23;15.50;1.00
42905;DHT22;28550;51.228;4.528;2023-02-28T14:49:50;15.20;1.00
42905;DHT22;28550;51.228;4.528;2023-02-28T14:52:22;14.90;1.00
42905;DHT22;28550;51.228;4.528;2023-02-28T14:54:57;15.30;1.00
42905;DHT22;28550;51.228;4.528;2023-02-28T14:57:24;14.20;1.00
42905;DHT22;28550;51.228;4.528;2023-02-28T14:59:57;13.10;1.00
42905;DHT22;28550;51.228;4.528;2023-02-28T15:02:24;12.70;1.00
42905;DHT22;28550;51.228;4.528;2023-02-28T15:07:34;9.90;1.00
42905;DHT22;28550;51.228;4.528;2023-02-28T15:10:33;9.10;1.00
42905;DHT22;28550;51.228;4.528;2023-02-28T15:12:57;9.10;1.00
42905;DHT22;28550;51.228;4.528;2023-02-28T15:15:24;9.00;1.00
42905;DHT22;28550;51.228;4.528;2023-02-28T15:17:52;8.80;1.00
42905;DHT22;28550;51.228;4.528;2023-02-28T15:20:19;8.70;1.00
42905;DHT22;28550;51.228;4.528;2023-02-28T15:22:46;8.50;1.00
42905;DHT22;28550;51.228;4.528;2023-02-28T15:25:13;8.20;1.00
42905;DHT22;28550;51.228;4.528;2023-02-28T15:27:41;8.40;1.00
42905;DHT22;28550;51.228;4.528;2023-02-28T15:30:15;8.80;1.00
42905;DHT22;28550;51.228;4.528;2023-02-28T15:32:43;8.90;1.00
42905;DHT22;28550;51.228;4.528;2023-02-28T15:41:05;10.50;1.00
42905;DHT22;28550;51.228;4.528;2023-02-28T15:43:35;10.70;1.00
42905;DHT22;28550;51.228;4.528;2023-02-28T15:46:02;10.30;1.00
42905;DHT22;28550;51.228;4.528;2023-02-28T15:48:29;10.20;1.00
42905;DHT22;28550;51.228;4.528;2023-02-28T15:50:57;9.90;1.00
42905;DHT22;28550;51.228;4.528;2023-02-28T15:53:28;10.30;1.00
42905;DHT22;28550;51.228;4.528;2023-02-28T15:56:00;10.30;1.00
42905;DHT22;28550;51.228;4.528;2023-02-28T15:58:26;10.60;1.00
42905;DHT22;28550;51.228;4.528;2023-02-28T16:03:57;10.00;1.00
42905;DHT22;28550;51.228;4.528;2023-02-28T16:08:51;9.60;1.00
42905;DHT22;28550;51.228;4.528;2023-02-28T16:11:18;9.40;1.00
42905;DHT22;28550;51.228;4.528;2023-02-28T16:13:47;9.00;1.00
42905;DHT22;28550;51.228;4.528;2023-02-28T16:16:21;8.80;1.00
42905;DHT22;28550;51.228;4.528;2023-02-28T16:18:47;8.30;1.00
42905;DHT22;28550;51.228;4.528;2023-02-28T16:21:14;8.10;1.00
42905;DHT22;28550;51.228;4.528;2023-02-28T16:23:42;7.60;1.00
42905;DHT22;28550;51.228;4.528;2023-02-28T16:26:08;7.20;1.00
42905;DHT22;28550;51.228;4.528;2023-02-28T16:28:37;6.90;1.00
42905;DHT22;28550;51.228;4.528;2023-02-28T16:31:04;7.00;25.90
42905;DHT22;28550;51.228;4.528;2023-02-28T16:33:31;7.00;67.80
42905;DHT22;28550;51.228;4.528;2023-02-28T16:35:57;6.90;71.50
42905;DHT22;28550;51.228;4.528;2023-02-28T16:38:26;6.70;99.90
42905;DHT22;28550;51.228;4.528;2023-02-28T16:40:53;6.60;99.90
42905;DHT22;28550;51.228;4.528;2023-02-28T16:43:25;6.30;99.90
42905;DHT22;28550;51.228;4.528;2023-02-28T16:45:54;6.20;99.90
42905;DHT22;28550;51.228;4.528;2023-02-28T16:48:20;6.20;99.90
42905;DHT22;28550;51.228;4.528;2023-02-28T16:50:46;6.10;99.90
42905;DHT22;28550;51.228;4.528;2023-02-28T16:53:12;5.90;99.90
42905;DHT22;28550;51.228;4.528;2023-02-28T16:55:39;5.90;99.90
42905;DHT22;28550;51.228;4.528;2023-02-28T16:58:05;5.90;99.90
42905;DHT22;28550;51.228;4.528;2023-02-28T17:00:31;5.70;99.90
42905;DHT22;28550;51.228;4.528;2023-02-28T17:02:59;5.60;99.90
42905;DHT22;28550;51.228;4.528;2023-02-28T17:05:25;5.50;99.90
42905;DHT22;28550;51.228;4.528;2023-02-28T17:07:51;5.50;99.90
42905;DHT22;28550;51.228;4.528;2023-02-28T17:10:20;5.50;99.90
42905;DHT22;28550;51.228;4.528;2023-02-28T17:12:47;5.40;99.90
42905;DHT22;28550;51.228;4.528;2023-02-28T17:15:18;5.40;99.90
42905;DHT22;28550;51.228;4.528;2023-02-28T17:17:46;5.30;99.90
42905;DHT22;28550;51.228;4.528;2023-02-28T17:20:15;5.10;99.90
42905;DHT22;28550;51.228;4.528;2023-02-28T17:22:43;5.10;99.90
42905;DHT22;28550;51.228;4.528;2023-02-28T17:25:09;5.00;99.90
42905;DHT22;28550;51.228;4.528;2023-02-28T17:27:35;5.00;40.70
42905;DHT22;28550;51.228;4.528;2023-02-28T17:30:02;5.00;99.90
42905;DHT22;28550;51.228;4.528;2023-02-28T17:32:28;4.90;58.30
42905;DHT22;28550;51.228;4.528;2023-02-28T17:34:55;4.80;43.60
42905;DHT22;28550;51.228;4.528;2023-02-28T17:37:20;4.60;1.00
42905;DHT22;28550;51.228;4.528;2023-02-28T17:39:46;4.70;1.00
42905;DHT22;28550;51.228;4.528;2023-02-28T17:42:12;4.60;1.00
42905;DHT22;28550;51.228;4.528;2023-02-28T17:44:37;4.60;1.00
42905;DHT22;28550;51.228;4.528;2023-02-28T17:47:03;4.40;1.00
42905;DHT22;28550;51.228;4.528;2023-02-28T17:49:28;4.40;1.00
42905;DHT22;28550;51.228;4.528;2023-02-28T17:51:54;4.20;1.00
42905;DHT22;28550;51.228;4.528;2023-02-28T17:54:20;4.10;1.00
42905;DHT22;28550;51.228;4.528;2023-02-28T17:56:46;3.90;1.00
42905;DHT22;28550;51.228;4.528;2023-02-28T17:59:12;3.70;1.00
42905;DHT22;28550;51.228;4.528;2023-02-28T18:01:38;3.70;93.30
42905;DHT22;28550;51.228;4.528;2023-02-28T18:04:03;3.60;99.90
42905;DHT22;28550;51.228;4.528;2023-02-28T18:06:39;3.50;99.90
42905;DHT22;28550;51.228;4.528;2023-02-28T18:09:26;3.50;1.00
42905;DHT22;28550;51.228;4.528;2023-02-28T18:11:53;3.40;1.00
42905;DHT22;28550;51.228;4.528;2023-02-28T18:14:20;3.40;99.90
42905;DHT22;28550;51.228;4.528;2023-02-28T18:17:00;3.40;1.00
42905;DHT22;28550;51.228;4.528;2023-02-28T18:19:26;3.30;99.90
42905;DHT22;28550;51.228;4.528;2023-02-28T18:21:53;3.20;1.00
42905;DHT22;28550;51.228;4.528;2023-02-28T18:24:19;3.20;1.00
42905;DHT22;28550;51.228;4.528;2023-02-28T18:26:46;3.20;1.00
42905;DHT22;28550;51.228;4.528;2023-02-28T18:29:15;3.10;18.00
42905;DHT22;28550;51.228;4.528;2023-02-28T18:31:42;3.10;99.90
42905;DHT22;28550;51.228;4.528;2023-02-28T18:34:25;3.10;92.40
42905;DHT22;28550;51.228;4.528;2023-02-28T18:37:04;3.10;99.90
42905;DHT22;28550;51.228;4.528;2023-02-28T18:58:51;2.60;1.00
42905;DHT22;28550;51.228;4.528;2023-02-28T19:04:22;2.50;99.90
42905;DHT22;28550;51.228;4.528;2023-02-28T19:12:39;2.50;62.10
